createdAt,value
2022-09-07T00:02:38.867Z,3.10
2022-09-07T00:05:25.761Z,2.30
2022-09-07T00:08:13.274Z,2.60
2022-09-07T00:11:02.773Z,2.47
2022-09-07T00:13:49.796Z,2.88
2022-09-07T00:16:36.792Z,3.00
2022-09-07T00:19:23.331Z,3.00
2022-09-07T00:22:10.128Z,2.83
2022-09-07T00:24:56.581Z,3.30
2022-09-07T00:27:43.456Z,3.10
2022-09-07T00:30:29.984Z,3.42
2022-09-07T00:33:16.919Z,3.25
2022-09-07T00:36:05.598Z,3.08
2022-09-07T00:38:52.319Z,2.97
2022-09-07T00:41:38.914Z,2.70
2022-09-07T00:44:44.087Z,3.10
2022-09-07T00:47:42.720Z,3.40
2022-09-07T00:50:42.523Z,3.42
2022-09-07T00:53:34.571Z,3.50
2022-09-07T00:56:27.885Z,3.72
2022-09-07T00:59:17.456Z,3.90
2022-09-07T01:02:04.751Z,3.85
2022-09-07T01:04:56.729Z,4.13
2022-09-07T01:07:44.712Z,3.70
2022-09-07T01:10:32.034Z,3.65
2022-09-07T01:13:18.953Z,3.15
2022-09-07T01:16:39.511Z,3.05
2022-09-07T01:19:59.266Z,2.65
2022-09-07T01:23:22.795Z,2.30
2022-09-07T01:26:18.951Z,2.78
2022-09-07T01:29:21.519Z,2.88
2022-09-07T01:32:22.300Z,3.05
2022-09-07T01:35:26.683Z,1.98
2022-09-07T01:38:27.244Z,1.90
2022-09-07T01:41:40.210Z,2.30
2022-09-07T01:44:37.283Z,2.40
2022-09-07T01:47:41.215Z,2.30
2022-09-07T01:50:53.478Z,2.40
2022-09-07T01:54:06.383Z,2.40
2022-09-07T01:56:57.854Z,2.25
2022-09-07T01:59:53.215Z,2.03
2022-09-07T02:02:53.864Z,1.77
2022-09-07T02:05:51.605Z,2.53
2022-09-07T02:08:51.718Z,2.67
2022-09-07T02:11:40.334Z,2.58
2022-09-07T02:14:36.427Z,2.67
2022-09-07T02:17:30.200Z,2.47
2022-09-07T02:20:21.986Z,2.40
2022-09-07T02:23:17.734Z,2.40
2022-09-07T02:26:10.177Z,2.30
2022-09-07T02:28:57.297Z,2.20
2022-09-07T02:31:44.072Z,2.33
2022-09-07T02:34:31.772Z,2.13
2022-09-07T02:37:20.869Z,2.27
2022-09-07T02:40:08.838Z,1.70
2022-09-07T02:42:56.800Z,1.95
2022-09-07T02:46:10.247Z,1.95
2022-09-07T02:49:10.592Z,1.50
2022-09-07T02:52:13.310Z,1.40
2022-09-07T02:55:18.541Z,1.40
2022-09-07T02:58:11.952Z,1.73
2022-09-07T03:01:20.211Z,1.77
2022-09-07T03:04:51.806Z,2.03
2022-09-07T03:07:46.983Z,1.77
2022-09-07T03:10:34.345Z,1.73
2022-09-07T03:13:25.321Z,1.90
2022-09-07T03:16:14.129Z,1.90
2022-09-07T03:19:01.064Z,1.48
2022-09-07T03:21:47.656Z,1.70
2022-09-07T03:24:34.694Z,1.85
2022-09-07T03:27:21.219Z,1.50
2022-09-07T03:30:09.956Z,1.80
2022-09-07T03:32:56.469Z,1.65
2022-09-07T03:35:44.451Z,1.53
2022-09-07T03:38:31.305Z,1.45
2022-09-07T03:41:18.228Z,1.70
2022-09-07T03:44:05.740Z,1.90
2022-09-07T03:46:52.670Z,1.60
2022-09-07T03:49:39.141Z,1.30
2022-09-07T03:52:26.346Z,1.50
2022-09-07T03:55:13.258Z,1.60
2022-09-07T03:58:00.051Z,1.30
2022-09-07T04:00:46.562Z,1.50
2022-09-07T04:03:33.823Z,1.43
2022-09-07T04:06:20.487Z,1.85
2022-09-07T04:09:10.846Z,1.70
2022-09-07T04:11:57.325Z,1.20
2022-09-07T04:14:44.375Z,1.50
2022-09-07T04:17:30.906Z,1.40
2022-09-07T04:20:17.981Z,1.60
2022-09-07T04:23:04.865Z,1.67
2022-09-07T04:25:52.714Z,2.00
2022-09-07T04:28:39.212Z,1.60
2022-09-07T04:31:26.136Z,1.60
2022-09-07T04:34:13.256Z,1.67
2022-09-07T04:37:00.114Z,1.80
2022-09-07T04:39:46.665Z,1.50
2022-09-07T04:42:33.459Z,1.63
2022-09-07T04:45:20.102Z,1.80
2022-09-07T04:48:07.410Z,1.60
2022-09-07T04:50:54.070Z,1.63
2022-09-07T04:53:40.852Z,1.50
2022-09-07T04:56:27.920Z,1.90
2022-09-07T04:59:14.814Z,1.50
2022-09-07T05:02:01.456Z,1.90
2022-09-07T05:04:48.515Z,1.80
2022-09-07T05:07:15.078Z,1.90
2022-09-07T05:09:41.945Z,1.90
2022-09-07T05:12:09.012Z,1.73
2022-09-07T05:14:35.533Z,1.70
2022-09-07T05:17:03.233Z,2.40
2022-09-07T05:19:30.203Z,1.98
2022-09-07T05:21:57.453Z,2.17
2022-09-07T05:24:24.641Z,2.10
2022-09-07T05:26:51.555Z,2.10
2022-09-07T05:32:05.018Z,1.90
2022-09-07T05:34:32.137Z,2.53
2022-09-07T05:36:59.848Z,1.93
2022-09-07T05:39:27.281Z,2.00
2022-09-07T05:41:54.010Z,1.95
2022-09-07T05:47:07.573Z,2.22
2022-09-07T05:49:34.556Z,2.23
2022-09-07T05:52:01.082Z,1.75
2022-09-07T05:54:28.021Z,2.10
2022-09-07T05:56:54.531Z,1.92
2022-09-07T05:59:21.056Z,1.90
2022-09-07T06:01:48.138Z,1.90
2022-09-07T06:04:14.744Z,1.95
2022-09-07T06:06:41.252Z,1.90
2022-09-07T06:09:09.368Z,1.75
2022-09-07T06:11:36.475Z,2.10
2022-09-07T06:14:03.002Z,2.00
2022-09-07T06:16:30.066Z,1.77
2022-09-07T06:18:56.662Z,2.20
2022-09-07T06:21:24.094Z,2.25
2022-09-07T06:23:51.748Z,2.40
2022-09-07T06:26:19.734Z,2.73
2022-09-07T06:28:50.249Z,3.40
2022-09-07T06:31:20.865Z,3.60
2022-09-07T06:33:48.259Z,4.22
2022-09-07T06:36:16.982Z,4.05
2022-09-07T06:38:45.594Z,4.53
2022-09-07T06:44:01.435Z,5.00
2022-09-07T06:49:14.782Z,5.80
2022-09-07T06:51:41.388Z,5.60
2022-09-07T06:56:55.712Z,5.72
2022-09-07T06:59:22.221Z,5.55
2022-09-07T07:01:49.076Z,6.07
2022-09-07T07:04:16.000Z,5.80
2022-09-07T07:06:42.543Z,5.47
2022-09-07T07:09:13.889Z,5.38
2022-09-07T07:11:43.598Z,5.20
2022-09-07T07:14:17.537Z,5.20
2022-09-07T07:16:44.664Z,4.70
2022-09-07T07:19:11.582Z,4.97
2022-09-07T07:22:03.538Z,5.03
2022-09-07T07:24:24.963Z,5.13
2022-09-07T07:26:51.560Z,4.97
2022-09-07T07:29:18.877Z,4.97
2022-09-07T07:31:47.395Z,4.82
2022-09-07T07:34:15.206Z,4.53
2022-09-07T07:36:41.769Z,4.25
2022-09-07T07:41:58.708Z,4.17
2022-09-07T07:44:28.444Z,4.13
2022-09-07T07:46:55.043Z,3.90
2022-09-07T07:49:21.759Z,3.45
2022-09-07T07:54:37.926Z,3.30
2022-09-07T07:57:05.738Z,4.18
2022-09-07T07:59:32.257Z,3.85
2022-09-07T08:02:04.446Z,3.65
2022-09-07T08:04:35.416Z,4.03
2022-09-07T08:07:08.615Z,3.40
2022-09-07T08:09:38.124Z,3.70
2022-09-07T08:12:04.640Z,3.67
2022-09-07T08:14:31.091Z,3.30
2022-09-07T08:16:57.935Z,3.50
2022-09-07T08:19:24.397Z,3.03
2022-09-07T08:21:51.043Z,3.38
2022-09-07T08:24:17.745Z,3.40
2022-09-07T08:26:44.424Z,3.08
2022-09-07T08:29:10.865Z,3.25
2022-09-07T08:31:38.287Z,2.90
2022-09-07T08:34:04.829Z,3.08
2022-09-07T08:36:31.928Z,3.25
2022-09-07T08:38:58.812Z,2.65
2022-09-07T08:41:46.386Z,2.97
2022-09-07T08:44:21.303Z,2.70
2022-09-07T08:46:50.315Z,2.63
2022-09-07T08:49:30.419Z,2.63
2022-09-07T08:52:10.091Z,2.25
2022-09-07T08:54:38.123Z,2.80
2022-09-07T09:00:12.261Z,2.60
2022-09-07T09:02:44.012Z,2.60
2022-09-07T09:05:22.899Z,2.95
2022-09-07T09:08:10.613Z,3.30
2022-09-07T09:10:55.489Z,2.90
2022-09-07T09:13:24.950Z,2.92
2022-09-07T09:16:04.347Z,3.00
2022-09-07T09:18:57.575Z,3.38
2022-09-07T09:21:27.309Z,3.10
2022-09-07T09:24:00.714Z,3.23
2022-09-07T09:26:30.081Z,3.15
2022-09-07T09:28:57.405Z,3.40
2022-09-07T09:31:28.585Z,3.60
2022-09-07T09:34:18.289Z,3.17
2022-09-07T09:36:50.885Z,3.07
2022-09-07T09:39:34.684Z,3.00
2022-09-07T09:42:24.275Z,2.80
2022-09-07T09:44:51.772Z,2.60
2022-09-07T09:47:30.456Z,3.00
2022-09-07T09:49:59.662Z,3.30
2022-09-07T09:52:31.839Z,3.35
2022-09-07T09:55:23.633Z,3.53
2022-09-07T10:06:20.159Z,3.72
2022-09-07T10:08:58.885Z,3.50
2022-09-07T10:14:32.258Z,3.75
2022-09-07T10:17:01.930Z,2.92
2022-09-07T10:19:28.662Z,3.10
2022-09-07T10:21:57.924Z,3.17
2022-09-07T10:24:27.308Z,3.80
2022-09-07T10:26:54.210Z,3.58
2022-09-07T10:29:30.013Z,4.00
2022-09-07T10:32:18.312Z,4.45
2022-09-07T10:35:14.683Z,4.20
2022-09-07T10:38:07.610Z,4.30
2022-09-07T10:40:39.239Z,5.07
2022-09-07T10:43:26.030Z,4.43
2022-09-07T10:49:30.589Z,3.60
2022-09-07T10:52:17.749Z,3.50
2022-09-07T10:54:54.020Z,2.55
2022-09-07T10:57:49.116Z,3.30
2022-09-07T11:00:22.917Z,2.80
2022-09-07T11:05:54.252Z,2.90
2022-09-07T11:08:27.441Z,2.72
2022-09-07T11:11:16.600Z,3.47
2022-09-07T11:14:09.351Z,2.70
2022-09-07T11:16:53.433Z,2.40
2022-09-07T11:19:41.525Z,2.43
2022-09-07T11:22:21.010Z,3.20
2022-09-07T11:27:51.171Z,2.10
2022-09-07T11:30:22.060Z,2.15
2022-09-07T11:33:01.287Z,1.80
2022-09-07T11:35:45.245Z,1.80
2022-09-07T11:38:29.526Z,2.00
2022-09-07T11:41:15.040Z,1.70
2022-09-07T11:43:55.858Z,1.98
2022-09-07T11:46:32.727Z,1.60
2022-09-07T11:48:59.943Z,1.83
2022-09-07T11:51:39.804Z,1.75
2022-09-07T11:54:48.399Z,1.70
2022-09-07T11:57:15.261Z,1.92
2022-09-07T12:00:00.716Z,1.80
2022-09-07T12:03:00.249Z,2.03
2022-09-07T12:05:56.741Z,1.80
2022-09-07T12:08:35.823Z,2.00
2022-09-07T12:11:09.974Z,1.65
2022-09-07T12:13:58.318Z,2.07
2022-09-07T12:16:54.320Z,2.00
2022-09-07T12:19:26.345Z,2.22
2022-09-07T12:21:52.878Z,1.85
2022-09-07T12:24:45.301Z,2.08
2022-09-07T12:27:32.571Z,2.27
2022-09-07T12:30:01.410Z,1.98
2022-09-07T12:32:55.452Z,2.08
2022-09-07T12:35:58.111Z,2.00
2022-09-07T12:38:31.008Z,1.73
2022-09-07T12:41:00.493Z,1.63
2022-09-07T12:43:48.928Z,1.55
2022-09-07T12:46:36.143Z,2.05
2022-09-07T12:49:39.904Z,1.67
2022-09-07T12:52:15.810Z,1.88
2022-09-07T12:55:27.311Z,2.17
2022-09-07T12:58:06.881Z,2.08
2022-09-07T13:00:46.909Z,2.28
2022-09-07T13:09:36.642Z,2.03
2022-09-07T13:12:53.704Z,1.80
2022-09-07T13:15:41.061Z,2.28
2022-09-07T13:18:31.512Z,1.92
2022-09-07T13:21:07.370Z,1.98
2022-09-07T13:23:47.734Z,2.50
2022-09-07T13:26:52.205Z,2.40
2022-09-07T13:29:24.083Z,2.38
2022-09-07T13:32:04.885Z,2.05
2022-09-07T13:34:34.651Z,2.45
2022-09-07T13:37:03.346Z,2.30
2022-09-07T13:39:38.951Z,2.50
2022-09-07T13:42:06.412Z,2.42
2022-09-07T13:44:34.155Z,2.25
2022-09-07T13:47:06.728Z,2.38
2022-09-07T13:49:47.053Z,2.53
2022-09-07T13:52:18.978Z,2.40
2022-09-07T13:55:25.698Z,2.75
2022-09-07T13:57:58.799Z,2.50
2022-09-07T14:00:26.380Z,2.40
2022-09-07T14:02:56.680Z,2.40
2022-09-07T14:05:24.268Z,2.03
2022-09-07T14:07:54.104Z,2.40
2022-09-07T14:10:24.171Z,2.03
2022-09-07T14:13:11.498Z,2.40
2022-09-07T14:15:42.586Z,2.17
2022-09-07T14:18:18.159Z,2.30
2022-09-07T14:20:52.871Z,2.65
2022-09-07T14:23:34.862Z,2.28
2022-09-07T14:26:17.537Z,1.98
2022-09-07T14:28:46.691Z,2.10
2022-09-07T14:31:16.290Z,2.58
2022-09-07T14:33:54.906Z,2.10
2022-09-07T14:36:44.304Z,2.25
2022-09-07T14:39:13.297Z,2.40
2022-09-07T14:41:41.992Z,2.30
2022-09-07T14:44:30.438Z,2.20
2022-09-07T14:46:59.835Z,2.25
2022-09-07T14:49:26.608Z,1.90
2022-09-07T14:51:54.424Z,2.58
2022-09-07T14:54:31.908Z,2.10
2022-09-07T14:57:05.570Z,2.45
2022-09-07T14:59:35.456Z,2.60
2022-09-07T15:02:27.029Z,2.65
2022-09-07T15:05:19.037Z,2.67
2022-09-07T15:07:59.065Z,2.20
2022-09-07T15:10:36.818Z,2.60
2022-09-07T15:13:06.176Z,2.70
2022-09-07T15:15:40.288Z,2.55
2022-09-07T15:18:45.708Z,2.90
2022-09-07T15:21:12.484Z,2.60
2022-09-07T15:23:39.057Z,2.22
2022-09-07T15:26:05.907Z,2.60
2022-09-07T15:34:11.562Z,2.70
2022-09-07T15:36:52.222Z,2.58
2022-09-07T15:39:25.372Z,2.50
2022-09-07T15:41:52.732Z,2.60
2022-09-07T15:44:24.399Z,2.72
2022-09-07T15:49:47.329Z,2.35
2022-09-07T15:52:16.255Z,2.88
2022-09-07T15:54:43.466Z,2.67
2022-09-07T15:59:57.284Z,2.40
2022-09-07T16:05:10.769Z,2.30
2022-09-07T16:10:24.567Z,2.50
2022-09-07T16:15:46.051Z,2.63
2022-09-07T16:18:17.574Z,2.85
2022-09-07T16:20:45.015Z,2.53
2022-09-07T16:23:14.998Z,2.20
2022-09-07T16:25:54.018Z,2.47
2022-09-07T16:28:20.992Z,2.45
2022-09-07T16:30:48.114Z,2.40
2022-09-07T16:33:15.196Z,2.47
2022-09-07T16:35:42.335Z,2.50
2022-09-07T16:40:55.486Z,2.25
2022-09-07T16:43:22.020Z,2.42
2022-09-07T16:46:04.495Z,2.40
2022-09-07T16:48:33.000Z,2.33
2022-09-07T16:51:02.592Z,2.50
2022-09-07T16:53:31.189Z,2.78
2022-09-07T16:56:19.173Z,2.42
2022-09-07T16:58:51.791Z,2.47
2022-09-07T17:01:21.813Z,2.13
2022-09-07T17:03:49.608Z,2.50
2022-09-07T17:06:17.441Z,2.22
2022-09-07T17:08:45.237Z,2.10
2022-09-07T17:11:14.135Z,2.50
2022-09-07T17:13:41.860Z,2.10
2022-09-07T17:16:10.262Z,2.13
2022-09-07T17:21:24.946Z,3.03
2022-09-07T17:23:55.515Z,2.45
2022-09-07T17:26:26.928Z,2.30
2022-09-07T17:28:59.566Z,2.67
2022-09-07T17:34:16.219Z,1.98
2022-09-07T17:36:42.879Z,2.03
2022-09-07T17:39:18.789Z,2.30
2022-09-07T17:41:49.411Z,2.47
2022-09-07T17:44:16.803Z,2.05
2022-09-07T17:46:43.666Z,2.38
2022-09-07T17:49:14.020Z,2.13
2022-09-07T17:51:40.606Z,2.20
2022-09-07T17:54:11.468Z,2.00
2022-09-07T17:56:40.549Z,1.95
2022-09-07T18:01:54.850Z,2.28
2022-09-07T18:04:22.645Z,2.45
2022-09-07T18:06:49.500Z,2.10
2022-09-07T18:09:16.632Z,2.03
2022-09-07T18:11:45.771Z,2.20
2022-09-07T18:14:14.344Z,2.38
2022-09-07T18:16:41.626Z,2.22
2022-09-07T18:19:08.680Z,2.03
2022-09-07T18:21:40.962Z,2.28
2022-09-07T18:24:13.953Z,2.13
2022-09-07T18:26:40.906Z,2.60
2022-09-07T18:29:25.925Z,2.80
2022-09-07T18:31:54.976Z,2.93
2022-09-07T18:34:21.703Z,2.40
2022-09-07T18:36:48.253Z,2.70
2022-09-07T18:39:15.304Z,2.95
2022-09-07T18:41:42.267Z,2.70
2022-09-07T18:45:27.274Z,2.90
2022-09-07T18:46:55.892Z,2.53
2022-09-07T18:54:59.380Z,2.90
2022-09-07T18:57:25.975Z,2.23
2022-09-07T18:59:53.521Z,2.80
2022-09-07T19:02:20.555Z,3.08
2022-09-07T19:07:33.866Z,3.28
2022-09-07T19:10:01.105Z,3.67
2022-09-07T19:12:27.829Z,4.43
2022-09-07T19:14:54.489Z,6.05
2022-09-07T19:17:21.279Z,5.70
2022-09-07T19:19:48.615Z,8.85
2022-09-07T19:22:15.394Z,7.40
2022-09-07T19:24:42.058Z,5.78
2022-09-07T19:27:08.582Z,5.20
2022-09-07T19:29:35.403Z,5.22
2022-09-07T19:32:07.858Z,4.93
2022-09-07T19:34:38.685Z,5.90
2022-09-07T19:37:06.800Z,6.25
2022-09-07T19:39:33.657Z,7.38
2022-09-07T19:42:00.268Z,11.15
2022-09-07T19:44:28.091Z,11.30
2022-09-07T19:46:54.860Z,12.43
2022-09-07T19:49:21.423Z,8.98
2022-09-07T19:51:51.056Z,8.07
2022-09-07T19:54:18.288Z,5.78
2022-09-07T19:56:44.856Z,6.32
2022-09-07T19:59:12.415Z,5.30
2022-09-07T20:01:40.777Z,6.20
2022-09-07T20:04:14.815Z,6.28
2022-09-07T20:06:44.383Z,5.43
2022-09-07T20:09:10.990Z,6.05
2022-09-07T20:11:37.735Z,6.03
2022-09-07T20:14:04.685Z,5.60
2022-09-07T20:16:31.556Z,5.28
2022-09-07T20:18:59.150Z,5.75
2022-09-07T20:21:26.942Z,5.75
2022-09-07T20:23:53.424Z,5.67
2022-09-07T20:26:21.151Z,4.97
2022-09-07T20:29:10.704Z,5.15
2022-09-07T20:31:40.294Z,4.90
2022-09-07T20:34:07.275Z,6.10
2022-09-07T20:36:33.747Z,5.90
2022-09-07T20:39:00.721Z,5.15
2022-09-07T20:41:30.138Z,6.30
2022-09-07T20:44:00.957Z,5.75
2022-09-07T20:46:29.040Z,6.07
2022-09-07T20:48:56.216Z,6.17
2022-09-07T20:51:22.748Z,6.45
2022-09-07T20:53:49.946Z,6.38
2022-09-07T20:56:28.162Z,5.90
2022-09-07T20:59:02.389Z,5.90
2022-09-07T21:01:31.502Z,6.23
2022-09-07T21:04:00.430Z,6.75
2022-09-07T21:06:28.310Z,6.15
2022-09-07T21:08:56.784Z,6.22
2022-09-07T21:11:32.354Z,6.65
2022-09-07T21:14:00.532Z,6.67
2022-09-07T21:16:27.925Z,6.40
2022-09-07T21:18:56.779Z,6.72
2022-09-07T21:21:24.793Z,6.70
2022-09-07T21:23:56.749Z,6.45
2022-09-07T21:26:24.022Z,6.70
2022-09-07T21:28:55.510Z,7.32
2022-09-07T21:31:22.173Z,7.80
2022-09-07T21:33:48.815Z,6.95
2022-09-07T21:36:16.082Z,7.28
2022-09-07T21:38:42.751Z,7.90
2022-09-07T21:41:11.744Z,8.05
2022-09-07T21:43:40.097Z,7.35
2022-09-07T21:46:12.850Z,6.97
2022-09-07T21:48:40.132Z,7.82
2022-09-07T21:51:07.182Z,6.90
2022-09-07T21:53:34.086Z,7.70
2022-09-07T21:56:06.156Z,8.55
2022-09-07T21:58:33.364Z,7.85
2022-09-07T22:01:10.758Z,8.07
2022-09-07T22:03:37.683Z,7.07
2022-09-07T22:06:04.452Z,8.07
2022-09-07T22:08:31.556Z,7.93
2022-09-07T22:11:08.178Z,8.75
2022-09-07T22:13:35.278Z,8.38
2022-09-07T22:16:03.413Z,8.43
2022-09-07T22:18:30.565Z,9.43
2022-09-07T22:21:06.110Z,9.18
2022-09-07T22:23:34.453Z,9.18
2022-09-07T22:26:01.188Z,9.57
2022-09-07T22:28:30.832Z,8.73
2022-09-07T22:31:08.858Z,9.32
2022-09-07T22:33:35.462Z,9.55
2022-09-07T22:36:14.292Z,8.52
2022-09-07T22:38:42.521Z,9.40
2022-09-07T22:41:14.247Z,9.67
2022-09-07T22:43:42.547Z,9.20
2022-09-07T22:46:10.248Z,9.52
2022-09-07T22:48:37.325Z,9.38
2022-09-07T22:51:04.836Z,8.82
2022-09-07T22:53:34.206Z,9.07
2022-09-07T22:56:08.098Z,8.32
2022-09-07T22:58:35.441Z,8.32
2022-09-07T23:01:03.833Z,6.32
2022-09-07T23:03:32.136Z,5.22
2022-09-07T23:06:00.597Z,5.10
2022-09-07T23:08:27.234Z,4.13
2022-09-07T23:10:54.080Z,3.80
2022-09-07T23:13:20.997Z,4.07
2022-09-07T23:15:48.301Z,3.35
2022-09-07T23:18:16.691Z,3.07
2022-09-07T23:20:43.936Z,2.50
2022-09-07T23:23:10.603Z,3.03
2022-09-07T23:25:38.064Z,2.67
2022-09-07T23:28:06.170Z,2.90
2022-09-07T23:30:35.377Z,2.57
2022-09-07T23:33:03.038Z,2.35
2022-09-07T23:35:29.900Z,2.97
2022-09-07T23:37:56.828Z,2.92
2022-09-07T23:40:24.012Z,2.92
2022-09-07T23:42:50.867Z,2.53
2022-09-07T23:45:17.400Z,2.42
2022-09-07T23:47:44.114Z,2.30
2022-09-07T23:50:11.065Z,2.30
2022-09-07T23:52:37.894Z,2.08
2022-09-07T23:55:05.047Z,2.00
2022-09-07T23:57:31.700Z,2.38
2022-09-07T23:59:58.240Z,2.55
